Leeuwarden, Netherlands

1:07 PM CEST on May 29, 2017 (GMT +0200)
Leeuwarden Air Base

Weather History for EHLW - April, 2013

Change the Weather History Date:

Thursday, April 4, 2013

  Actual Average Record
Temperature  
Mean Temperature 36 °F -  
Max Temperature 44 °F 53 °F 61 °F (2017)
Min Temperature 29 °F 39 °F 28 °F (2003)
Degree Days  
Heating Degree Days 28    
Moisture  
Dew Point 28 °F    
Average Humidity 67    
Maximum Humidity 81    
Minimum Humidity 49    
Precipitation  
Precipitation 0.00 in - - ()
Sea Level Pressure  
Sea Level Pressure 30.00 in    
Wind  
Wind Speed 15 mph ()    
Max Wind Speed 26 mph    
Max Gust Speed -    
Visibility 6.4 miles    
Events      
Averages and records for this station are not official NWS values.
T = Trace of Precipitation, MM = Missing Value Source: Averaged Metar Reports

Daily Weather History Graph

Daily Weather History Graph

Search for Another Location

Airport or City:

Trip Planner

Search our weather history database for the weather conditions in past years. The results will help you decide how hot, cold, wet, or windy it might be!

Date:

Astronomy

Apr. 04, 2013 Rise Set
Actual Time 7:03 AM CEST 8:17 PM CEST
Civil Twilight 6:27 AM CEST 8:53 PM CEST
Nautical Twilight 5:44 AM CEST 9:37 PM CEST
Astronomical Twilight 4:57 AM CEST 10:24 PM CEST
Moon 4:07 AM CEST (4/4) 1:31 PM CEST (4/4)
Length of Visible Light 14h 25m
Length of Day
13h 14m
Last Quarter, 36% of the Moon is Illuminated
Apr 4
Last Quarter
Apr 10
New
Apr 18
First Quarter
Apr 25
Full
May 2
Last Quarter

Hourly Weather History & Observations

Time (CEST) Temp. Windchill Dew Point Humidity Pressure Visibility Wind Dir Wind Speed Gust Speed Precip Events Conditions
12:25 AM 32.0 °F 24.2 °F 23.0 °F 69% 30.06 in 6.2 mi East 9.2 mph - N/A   Partly Cloudy
12:55 AM 32.0 °F 24.2 °F 21.2 °F 64% 30.06 in 6.2 mi East 9.2 mph - N/A   Partly Cloudy
1:25 AM 30.2 °F 21.3 °F 21.2 °F 69% 30.06 in 6.2 mi ENE 10.4 mph - N/A   Partly Cloudy
1:55 AM 30.2 °F 21.9 °F 21.2 °F 69% 30.06 in 6.2 mi ENE 9.2 mph - N/A   Partly Cloudy
2:00 AM 29 °F - 21 °F 63% 30.08 in 13 mi ENE 8.9 mph - -   Partly Cloudy
2:25 AM 30.2 °F 21.3 °F 21.2 °F 69% 30.06 in 6.2 mi ENE 10.4 mph - N/A   Unknown
2:55 AM 32.0 °F 23.0 °F 23.0 °F 69% 30.06 in 6.2 mi ENE 11.5 mph - N/A   Overcast
3:25 AM 33.8 °F 25.8 °F 23.0 °F 65% 30.06 in 6.2 mi ENE 10.4 mph - N/A   Overcast
3:55 AM 33.8 °F 25.3 °F 24.8 °F 70% 30.06 in 6.2 mi ENE 11.5 mph - N/A   Overcast
4:25 AM 33.8 °F 24.8 °F 26.6 °F 75% 30.04 in 6.2 mi NE 12.7 mph - N/A   Overcast
4:55 AM 33.8 °F 24.8 °F 24.8 °F 70% 30.04 in 6.2 mi ENE 12.7 mph - N/A   Overcast
5:25 AM 33.8 °F 25.3 °F 24.8 °F 70% 30.04 in 6.2 mi ENE 11.5 mph - N/A   Overcast
5:55 AM 33.8 °F 24.3 °F 24.8 °F 70% 30.04 in 6.2 mi ENE 13.8 mph - N/A   Overcast
6:25 AM 33.8 °F 23.5 °F 24.8 °F 70% 30.04 in 6.2 mi ENE 16.1 mph - N/A   Overcast
6:55 AM 33.8 °F 23.5 °F 26.6 °F 75% 30.04 in 6.2 mi ENE 16.1 mph - N/A   Overcast
7:25 AM 33.8 °F 23.5 °F 26.6 °F 75% 30.04 in 6.2 mi ENE 16.1 mph - N/A   Overcast
7:55 AM 33.8 °F 23.9 °F 26.6 °F 75% 30.04 in 6.2 mi ENE 15.0 mph - N/A   Overcast
8:00 AM 33 °F - 26 °F 68% 30.05 in 22 mi ENE 15.7 mph - -   Partly Cloudy
8:00 AM 33.8 °F 23.5 °F 26.6 °F 75% 30.04 in 6.2 mi ENE 16.1 mph - N/A   Overcast
8:06 AM 33.8 °F 23.2 °F 26.6 °F 75% 30.04 in 6.2 mi ENE 17.3 mph - N/A   Overcast
8:25 AM 33.8 °F 22.8 °F 26.6 °F 75% 30.04 in 6.2 mi ENE 18.4 mph - N/A   Overcast
8:55 AM 33.8 °F 22.5 °F 26.6 °F 75% 30.04 in 6.2 mi ENE 19.6 mph - N/A   Overcast
9:25 AM 33.8 °F 23.5 °F 26.6 °F 75% 30.04 in 6.2 mi ENE 16.1 mph - N/A   Overcast
9:35 AM 33.8 °F 23.5 °F 28.4 °F 81% 30.04 in 6.2 mi ENE 16.1 mph - N/A   Overcast
9:55 AM 35.6 °F 25.5 °F 28.4 °F 75% 30.04 in 6.2 mi ENE 17.3 mph - N/A   Overcast
9:56 AM 35.6 °F 25.2 °F 28.4 °F 75% 30.04 in 6.2 mi ENE 18.4 mph - N/A   Overcast
10:06 AM 35.6 °F 25.2 °F 28.4 °F 75% 30.04 in 6.2 mi ENE 18.4 mph - N/A   Mostly Cloudy
10:07 AM 35.6 °F 25.2 °F 28.4 °F 75% 30.04 in 6.2 mi ENE 18.4 mph - N/A   Mostly Cloudy
10:09 AM 35.6 °F 25.2 °F 26.6 °F 70% 30.04 in 6.2 mi ENE 18.4 mph - N/A   Mostly Cloudy
10:25 AM 35.6 °F 24.8 °F 28.4 °F 75% 30.04 in 6.2 mi ENE 19.6 mph - N/A   Scattered Clouds
10:35 AM 37.4 °F 27.5 °F 28.4 °F 70% 30.04 in 6.2 mi ENE 18.4 mph - N/A   Scattered Clouds
10:45 AM 37.4 °F 26.9 °F 28.4 °F 70% 30.04 in 6.2 mi ENE 20.7 mph - N/A   Partly Cloudy
10:55 AM 39.2 °F 29.0 °F 30.2 °F 70% 30.04 in 6.2 mi ENE 21.9 mph - N/A   Scattered Clouds
11:00 AM 37.4 °F 26.9 °F 28.4 °F 70% 30.04 in 6.2 mi ENE 20.7 mph - N/A   Scattered Clouds
11:02 AM 35.6 °F 24.5 °F 28.4 °F 75% 30.04 in 6.2 mi ENE 20.7 mph - N/A   Partly Cloudy
11:13 AM 37.4 °F 26.9 °F 28.4 °F 70% 30.04 in 6.2 mi ENE 20.7 mph - N/A   Scattered Clouds
11:25 AM 37.4 °F 26.9 °F 28.4 °F 70% 30.01 in 6.2 mi ENE 20.7 mph - N/A   Partly Cloudy
11:30 AM 39.2 °F 29.0 °F 30.2 °F 70% 30.01 in 6.2 mi ENE 21.9 mph - N/A   Scattered Clouds
11:32 AM 39.2 °F 29.3 °F 28.4 °F 65% 30.01 in 6.2 mi NE 20.7 mph - N/A   Mostly Cloudy
11:36 AM 37.4 °F 26.6 °F 28.4 °F 70% 30.01 in 6.2 mi NE 21.9 mph - N/A   Mostly Cloudy
11:55 AM 37.4 °F 26.4 °F 28.4 °F 70% 30.01 in 6.2 mi NE 23.0 mph - N/A   Partly Cloudy
12:11 PM 39.2 °F 29.0 °F 30.2 °F 70% 30.01 in 6.2 mi NE 21.9 mph - N/A   Scattered Clouds
12:15 PM 39.2 °F 28.7 °F 28.4 °F 65% 30.01 in 6.2 mi NE 23.0 mph - N/A   Partly Cloudy
12:25 PM 41.0 °F 31.4 °F 30.2 °F 65% 30.01 in 6.2 mi NE 21.9 mph - N/A   Partly Cloudy
12:46 PM 41.0 °F 31.4 °F 28.4 °F 61% 30.01 in 6.2 mi NE 21.9 mph - N/A   Scattered Clouds
12:55 PM 41.0 °F 31.1 °F 28.4 °F 61% 30.01 in 6.2 mi NE 23.0 mph - N/A   Mostly Cloudy
12:58 PM 41.0 °F 31.1 °F 28.4 °F 61% 30.01 in 6.2 mi NE 23.0 mph - N/A   Partly Cloudy
1:14 PM 41.0 °F 31.6 °F 28.4 °F 61% 30.01 in 6.2 mi NE 20.7 mph - N/A   Partly Cloudy
1:25 PM 41.0 °F 31.4 °F 28.4 °F 61% 30.01 in 6.2 mi NE 21.9 mph - N/A   Partly Cloudy
1:34 PM 41.0 °F 31.6 °F 28.4 °F 61% 29.98 in 6.2 mi NE 20.7 mph - N/A   Scattered Clouds
1:55 PM 42.8 °F 33.8 °F 30.2 °F 61% 29.98 in 6.2 mi NE 21.9 mph - N/A   Scattered Clouds
1:56 PM 41.0 °F 31.4 °F 28.4 °F 61% 29.98 in 6.2 mi NE 21.9 mph - N/A   Mostly Cloudy
2:00 PM 41 °F - 28 °F 49% 30.00 in 16 mi NE 20.1 mph - -   Partly Cloudy
2:00 PM 41.0 °F 31.6 °F 28.4 °F 61% 29.98 in 6.2 mi NE 20.7 mph - N/A   Mostly Cloudy
2:25 PM 42.8 °F 34.3 °F 30.2 °F 61% 29.98 in 6.2 mi NE 19.6 mph - N/A   Mostly Cloudy
2:55 PM 41.0 °F 31.6 °F 30.2 °F 65% 29.98 in 6.2 mi NE 20.7 mph - N/A   Mostly Cloudy
3:21 PM 42.8 °F 34.0 °F 30.2 °F 61% 29.95 in 6.2 mi NE 20.7 mph - N/A   Mostly Cloudy
3:25 PM 42.8 °F 34.0 °F 30.2 °F 61% 29.95 in 6.2 mi NE 20.7 mph - N/A   Mostly Cloudy
3:28 PM 41.0 °F 31.6 °F 28.4 °F 61% 29.95 in 6.2 mi NE 20.7 mph - N/A   Mostly Cloudy
3:29 PM 41.0 °F 31.6 °F 28.4 °F 61% 29.95 in 6.2 mi NE 20.7 mph - N/A   Mostly Cloudy
3:32 PM 41.0 °F 31.4 °F 30.2 °F 65% 29.95 in 6.2 mi NE 21.9 mph - N/A   Mostly Cloudy
3:37 PM 42.8 °F 34.0 °F 30.2 °F 61% 29.95 in 6.2 mi NE 20.7 mph - N/A   Mostly Cloudy
3:55 PM 42.8 °F 33.3 °F 26.6 °F 53% 29.95 in 6.2 mi NE 24.2 mph - N/A   Mostly Cloudy
4:02 PM 42.8 °F 33.5 °F 28.4 °F 57% 29.95 in 6.2 mi NE 23.0 mph - N/A   Partly Cloudy
4:25 PM 42.8 °F 33.1 °F 30.2 °F 61% 29.95 in 6.2 mi NE 25.3 mph - N/A   Partly Cloudy
4:32 PM 42.8 °F 33.1 °F 30.2 °F 61% 29.95 in 6.2 mi NE 25.3 mph - N/A   Partly Cloudy
4:55 PM 41.0 °F 30.5 °F 30.2 °F 65% 29.95 in 6.2 mi NE 26.5 mph - N/A   Mostly Cloudy
5:25 PM 39.2 °F 28.5 °F 30.2 °F 70% 29.95 in 6.2 mi NE 24.2 mph - N/A   Overcast
5:55 PM 39.2 °F 28.5 °F 28.4 °F 65% 29.95 in 6.2 mi NE 24.2 mph - N/A   Overcast
6:25 PM 39.2 °F 28.7 °F 28.4 °F 65% 29.95 in 6.2 mi ENE 23.0 mph - N/A   Overcast
6:55 PM 39.2 °F 29.0 °F 28.4 °F 65% 29.95 in 6.2 mi NE 21.9 mph - N/A   Overcast
7:25 PM 37.4 °F 27.5 °F 28.4 °F 70% 29.95 in 6.2 mi NE 18.4 mph - N/A   Mostly Cloudy
7:55 PM 39.2 °F 29.6 °F 28.4 °F 65% 29.95 in 6.2 mi NE 19.6 mph - N/A   Overcast
8:00 PM 38 °F - 29 °F 58% 29.95 in 25 mi NE 17.9 mph - -   Partly Cloudy
8:25 PM 39.2 °F 29.8 °F 28.4 °F 65% 29.95 in 6.2 mi NE 18.4 mph - N/A   Overcast
8:55 PM 39.2 °F 29.8 °F 30.2 °F 70% 29.95 in 6.2 mi ENE 18.4 mph - N/A   Overcast
9:25 PM 39.2 °F 30.2 °F 28.4 °F 65% 29.95 in 6.2 mi ENE 17.3 mph - N/A   Overcast
9:55 PM 37.4 °F 27.8 °F 28.4 °F 70% 29.95 in 6.2 mi ENE 17.3 mph - N/A   Overcast
10:25 PM 37.4 °F 27.5 °F 28.4 °F 70% 29.95 in 6.2 mi ENE 18.4 mph - N/A   Overcast
10:55 PM 37.4 °F 27.8 °F 28.4 °F 70% 29.95 in 6.2 mi ENE 17.3 mph - N/A   Overcast
11:25 PM 37.4 °F 28.5 °F 26.6 °F 65% 29.95 in 6.2 mi ENE 15.0 mph - N/A   Overcast
11:55 PM 37.4 °F 28.2 °F 26.6 °F 65% 29.95 in 6.2 mi ENE 16.1 mph - N/A   Overcast